sensor_id;sensor_type;location;lat;lon;timestamp;P1;durP1;ratioP1;P2;durP2;ratioP2
47866;SDS011;33628;50.806;11.586;2024-03-22T00:02:19;1999.90;;;999.90;;
47866;SDS011;33628;50.806;11.586;2024-03-22T00:04:46;1999.90;;;999.90;;
47866;SDS011;33628;50.806;11.586;2024-03-22T00:07:12;1999.90;;;999.90;;
47866;SDS011;33628;50.806;11.586;2024-03-22T00:09:39;1999.90;;;999.90;;
47866;SDS011;33628;50.806;11.586;2024-03-22T00:12:06;1999.90;;;999.90;;
47866;SDS011;33628;50.806;11.586;2024-03-22T00:14:33;1999.90;;;999.90;;
47866;SDS011;33628;50.806;11.586;2024-03-22T00:16:59;1999.90;;;999.90;;
47866;SDS011;33628;50.806;11.586;2024-03-22T00:19:27;1999.90;;;999.90;;
47866;SDS011;33628;50.806;11.586;2024-03-22T00:21:54;1999.57;;;999.90;;
47866;SDS011;33628;50.806;11.586;2024-03-22T00:24:20;1999.90;;;999.90;;
47866;SDS011;33628;50.806;11.586;2024-03-22T00:26:47;1999.90;;;999.90;;
47866;SDS011;33628;50.806;11.586;2024-03-22T00:29:15;1999.90;;;999.90;;
47866;SDS011;33628;50.806;11.586;2024-03-22T00:31:41;1996.17;;;999.90;;
47866;SDS011;33628;50.806;11.586;2024-03-22T00:34:08;1999.90;;;999.90;;
47866;SDS011;33628;50.806;11.586;2024-03-22T00:36:35;1999.90;;;999.90;;
47866;SDS011;33628;50.806;11.586;2024-03-22T00:39:02;1997.07;;;999.90;;
47866;SDS011;33628;50.806;11.586;2024-03-22T00:41:29;1990.87;;;999.90;;
47866;SDS011;33628;50.806;11.586;2024-03-22T00:43:55;1999.43;;;999.90;;
47866;SDS011;33628;50.806;11.586;2024-03-22T00:46:22;1999.90;;;999.90;;
47866;SDS011;33628;50.806;11.586;2024-03-22T00:48:49;1999.90;;;999.90;;
47866;SDS011;33628;50.806;11.586;2024-03-22T00:51:15;1999.90;;;999.90;;
47866;SDS011;33628;50.806;11.586;2024-03-22T00:53:43;1999.90;;;999.90;;
47866;SDS011;33628;50.806;11.586;2024-03-22T00:56:10;1999.90;;;999.90;;
47866;SDS011;33628;50.806;11.586;2024-03-22T00:58:37;1999.90;;;999.90;;
47866;SDS011;33628;50.806;11.586;2024-03-22T01:01:03;1999.90;;;999.90;;
47866;SDS011;33628;50.806;11.586;2024-03-22T01:03:30;1999.90;;;999.90;;
47866;SDS011;33628;50.806;11.586;2024-03-22T01:12:36;1999.90;;;999.90;;
47866;SDS011;33628;50.806;11.586;2024-03-22T01:15:02;1999.90;;;999.90;;
47866;SDS011;33628;50.806;11.586;2024-03-22T01:17:30;1999.90;;;999.90;;
47866;SDS011;33628;50.806;11.586;2024-03-22T01:19:57;1999.90;;;999.90;;
47866;SDS011;33628;50.806;11.586;2024-03-22T01:22:23;1999.90;;;999.90;;
47866;SDS011;33628;50.806;11.586;2024-03-22T01:24:50;1999.90;;;999.90;;
47866;SDS011;33628;50.806;11.586;2024-03-22T01:27:16;1999.90;;;999.90;;
47866;SDS011;33628;50.806;11.586;2024-03-22T01:29:44;1999.90;;;999.90;;
47866;SDS011;33628;50.806;11.586;2024-03-22T01:32:11;1999.90;;;999.90;;
47866;SDS011;33628;50.806;11.586;2024-03-22T01:34:38;1999.90;;;999.90;;
47866;SDS011;33628;50.806;11.586;2024-03-22T01:37:05;1999.40;;;999.90;;
47866;SDS011;33628;50.806;11.586;2024-03-22T01:39:32;1975.57;;;999.90;;
47866;SDS011;33628;50.806;11.586;2024-03-22T01:41:58;1974.00;;;999.90;;
47866;SDS011;33628;50.806;11.586;2024-03-22T01:44:27;1999.53;;;999.90;;
47866;SDS011;33628;50.806;11.586;2024-03-22T01:46:55;1999.90;;;999.90;;
47866;SDS011;33628;50.806;11.586;2024-03-22T01:49:22;1999.90;;;999.90;;
47866;SDS011;33628;50.806;11.586;2024-03-22T01:51:51;1997.27;;;999.90;;
47866;SDS011;33628;50.806;11.586;2024-03-22T01:54:18;1997.57;;;999.90;;
47866;SDS011;33628;50.806;11.586;2024-03-22T01:56:45;1995.37;;;999.90;;
47866;SDS011;33628;50.806;11.586;2024-03-22T01:59:12;1999.90;;;999.90;;
47866;SDS011;33628;50.806;11.586;2024-03-22T02:01:39;1999.90;;;999.90;;
47866;SDS011;33628;50.806;11.586;2024-03-22T02:04:08;1999.90;;;999.90;;
47866;SDS011;33628;50.806;11.586;2024-03-22T02:06:35;1999.90;;;999.90;;
47866;SDS011;33628;50.806;11.586;2024-03-22T02:09:01;1991.53;;;999.90;;
47866;SDS011;33628;50.806;11.586;2024-03-22T02:11:30;1991.07;;;999.90;;
47866;SDS011;33628;50.806;11.586;2024-03-22T02:13:57;1999.90;;;999.90;;
47866;SDS011;33628;50.806;11.586;2024-03-22T02:16:24;1969.10;;;999.90;;
47866;SDS011;33628;50.806;11.586;2024-03-22T02:18:51;1991.50;;;999.90;;
47866;SDS011;33628;50.806;11.586;2024-03-22T02:21:20;1982.83;;;999.90;;
47866;SDS011;33628;50.806;11.586;2024-03-22T02:23:48;1984.17;;;999.90;;
47866;SDS011;33628;50.806;11.586;2024-03-22T02:26:14;1999.90;;;999.90;;
47866;SDS011;33628;50.806;11.586;2024-03-22T02:28:41;1992.67;;;999.90;;
47866;SDS011;33628;50.806;11.586;2024-03-22T02:31:08;1999.90;;;999.90;;
47866;SDS011;33628;50.806;11.586;2024-03-22T02:33:35;1999.90;;;999.90;;
47866;SDS011;33628;50.806;11.586;2024-03-22T02:38:42;1999.90;;;999.90;;
47866;SDS011;33628;50.806;11.586;2024-03-22T02:41:10;1999.90;;;999.90;;
47866;SDS011;33628;50.806;11.586;2024-03-22T02:43:37;1999.90;;;999.90;;
47866;SDS011;33628;50.806;11.586;2024-03-22T02:46:03;1999.90;;;999.90;;
47866;SDS011;33628;50.806;11.586;2024-03-22T02:48:30;1999.90;;;999.90;;
47866;SDS011;33628;50.806;11.586;2024-03-22T02:50:57;1999.90;;;999.90;;
47866;SDS011;33628;50.806;11.586;2024-03-22T02:53:24;1999.90;;;999.90;;
47866;SDS011;33628;50.806;11.586;2024-03-22T02:55:50;1999.90;;;999.90;;
47866;SDS011;33628;50.806;11.586;2024-03-22T02:58:19;1999.90;;;999.90;;
47866;SDS011;33628;50.806;11.586;2024-03-22T03:00:47;1999.90;;;999.90;;
47866;SDS011;33628;50.806;11.586;2024-03-22T03:03:13;1999.90;;;999.90;;
47866;SDS011;33628;50.806;11.586;2024-03-22T03:05:41;1999.90;;;999.90;;
47866;SDS011;33628;50.806;11.586;2024-03-22T03:08:07;1999.90;;;999.90;;
47866;SDS011;33628;50.806;11.586;2024-03-22T03:10:35;1999.90;;;999.90;;
47866;SDS011;33628;50.806;11.586;2024-03-22T03:13:02;1999.90;;;999.90;;
47866;SDS011;33628;50.806;11.586;2024-03-22T03:15:30;1999.90;;;999.90;;
47866;SDS011;33628;50.806;11.586;2024-03-22T03:17:57;1999.90;;;999.90;;
47866;SDS011;33628;50.806;11.586;2024-03-22T03:20:24;1999.90;;;999.90;;
47866;SDS011;33628;50.806;11.586;2024-03-22T03:22:51;1999.90;;;999.90;;
47866;SDS011;33628;50.806;11.586;2024-03-22T03:25:18;1999.90;;;999.90;;
47866;SDS011;33628;50.806;11.586;2024-03-22T03:27:44;1999.90;;;999.90;;
47866;SDS011;33628;50.806;11.586;2024-03-22T03:30:11;1999.90;;;999.90;;
47866;SDS011;33628;50.806;11.586;2024-03-22T03:32:39;1999.90;;;999.90;;
47866;SDS011;33628;50.806;11.586;2024-03-22T03:35:06;1999.90;;;999.90;;
47866;SDS011;33628;50.806;11.586;2024-03-22T03:37:33;1999.90;;;999.90;;
47866;SDS011;33628;50.806;11.586;2024-03-22T03:39:59;1999.90;;;999.90;;
47866;SDS011;33628;50.806;11.586;2024-03-22T03:42:26;1999.90;;;999.90;;
47866;SDS011;33628;50.806;11.586;2024-03-22T03:44:52;1999.90;;;999.90;;
47866;SDS011;33628;50.806;11.586;2024-03-22T03:47:19;1999.90;;;999.90;;
47866;SDS011;33628;50.806;11.586;2024-03-22T03:49:47;1999.90;;;999.90;;
47866;SDS011;33628;50.806;11.586;2024-03-22T03:52:13;1999.90;;;999.90;;
47866;SDS011;33628;50.806;11.586;2024-03-22T03:54:40;1999.90;;;999.90;;
47866;SDS011;33628;50.806;11.586;2024-03-22T03:57:07;1999.90;;;999.90;;
47866;SDS011;33628;50.806;11.586;2024-03-22T03:59:33;1999.90;;;999.90;;
47866;SDS011;33628;50.806;11.586;2024-03-22T04:02:00;1999.90;;;999.90;;
47866;SDS011;33628;50.806;11.586;2024-03-22T04:04:26;1999.90;;;999.90;;
47866;SDS011;33628;50.806;11.586;2024-03-22T04:06:54;1999.90;;;999.90;;
47866;SDS011;33628;50.806;11.586;2024-03-22T04:09:21;1999.90;;;999.90;;
47866;SDS011;33628;50.806;11.586;2024-03-22T04:11:47;1999.90;;;999.90;;
47866;SDS011;33628;50.806;11.586;2024-03-22T04:14:14;1999.90;;;999.90;;
47866;SDS011;33628;50.806;11.586;2024-03-22T04:19:57;1999.90;;;999.90;;
47866;SDS011;33628;50.806;11.586;2024-03-22T04:22:26;1999.90;;;999.90;;
47866;SDS011;33628;50.806;11.586;2024-03-22T04:24:52;1999.90;;;999.90;;
47866;SDS011;33628;50.806;11.586;2024-03-22T04:27:19;1999.90;;;999.90;;
47866;SDS011;33628;50.806;11.586;2024-03-22T04:29:47;1999.90;;;999.90;;
47866;SDS011;33628;50.806;11.586;2024-03-22T04:32:13;1999.90;;;999.90;;
47866;SDS011;33628;50.806;11.586;2024-03-22T04:34:41;1999.90;;;999.90;;
47866;SDS011;33628;50.806;11.586;2024-03-22T04:37:08;1999.90;;;999.90;;
47866;SDS011;33628;50.806;11.586;2024-03-22T04:39:36;1999.90;;;999.90;;
47866;SDS011;33628;50.806;11.586;2024-03-22T04:42:02;1999.90;;;999.90;;
47866;SDS011;33628;50.806;11.586;2024-03-22T04:44:29;1999.90;;;999.90;;
47866;SDS011;33628;50.806;11.586;2024-03-22T04:46:56;1999.90;;;999.90;;
47866;SDS011;33628;50.806;11.586;2024-03-22T04:49:22;1999.90;;;999.90;;
47866;SDS011;33628;50.806;11.586;2024-03-22T04:51:49;1999.90;;;999.90;;
47866;SDS011;33628;50.806;11.586;2024-03-22T04:54:15;1999.90;;;999.90;;
47866;SDS011;33628;50.806;11.586;2024-03-22T04:56:43;1999.90;;;999.90;;
47866;SDS011;33628;50.806;11.586;2024-03-22T04:59:10;1999.90;;;999.90;;
47866;SDS011;33628;50.806;11.586;2024-03-22T05:01:36;1999.90;;;999.90;;
47866;SDS011;33628;50.806;11.586;2024-03-22T05:04:03;1999.90;;;999.90;;
47866;SDS011;33628;50.806;11.586;2024-03-22T05:06:30;1999.90;;;999.90;;
47866;SDS011;33628;50.806;11.586;2024-03-22T05:08:57;1999.90;;;999.90;;
47866;SDS011;33628;50.806;11.586;2024-03-22T05:11:23;1999.90;;;999.90;;
47866;SDS011;33628;50.806;11.586;2024-03-22T05:13:51;1999.90;;;999.90;;
47866;SDS011;33628;50.806;11.586;2024-03-22T05:16:18;1999.90;;;999.90;;
47866;SDS011;33628;50.806;11.586;2024-03-22T05:18:44;1999.90;;;999.90;;
47866;SDS011;33628;50.806;11.586;2024-03-22T05:21:11;1999.90;;;999.90;;
47866;SDS011;33628;50.806;11.586;2024-03-22T05:23:37;1999.90;;;999.90;;
47866;SDS011;33628;50.806;11.586;2024-03-22T05:26:04;1999.90;;;999.90;;
47866;SDS011;33628;50.806;11.586;2024-03-22T05:28:30;1999.90;;;999.90;;
47866;SDS011;33628;50.806;11.586;2024-03-22T05:30:58;1999.90;;;999.90;;
47866;SDS011;33628;50.806;11.586;2024-03-22T05:33:25;1999.90;;;999.90;;
47866;SDS011;33628;50.806;11.586;2024-03-22T05:35:51;1999.90;;;999.90;;
47866;SDS011;33628;50.806;11.586;2024-03-22T05:38:18;1999.90;;;999.90;;
47866;SDS011;33628;50.806;11.586;2024-03-22T05:40:44;1999.90;;;999.90;;
47866;SDS011;33628;50.806;11.586;2024-03-22T05:43:13;1999.90;;;999.90;;
47866;SDS011;33628;50.806;11.586;2024-03-22T05:45:40;1999.90;;;999.90;;
47866;SDS011;33628;50.806;11.586;2024-03-22T05:48:08;1999.90;;;999.90;;
47866;SDS011;33628;50.806;11.586;2024-03-22T05:50:34;1999.90;;;999.90;;
47866;SDS011;33628;50.806;11.586;2024-03-22T05:53:01;1999.90;;;999.90;;
47866;SDS011;33628;50.806;11.586;2024-03-22T05:55:28;1999.90;;;999.90;;
47866;SDS011;33628;50.806;11.586;2024-03-22T05:57:57;1999.90;;;999.90;;
47866;SDS011;33628;50.806;11.586;2024-03-22T06:00:23;1999.90;;;999.90;;
47866;SDS011;33628;50.806;11.586;2024-03-22T06:02:50;1999.90;;;999.90;;
47866;SDS011;33628;50.806;11.586;2024-03-22T06:05:18;1999.90;;;999.90;;
47866;SDS011;33628;50.806;11.586;2024-03-22T06:07:45;1999.90;;;999.90;;
47866;SDS011;33628;50.806;11.586;2024-03-22T06:10:12;1999.90;;;999.90;;
47866;SDS011;33628;50.806;11.586;2024-03-22T06:12:38;1999.90;;;999.90;;
47866;SDS011;33628;50.806;11.586;2024-03-22T06:15:07;1999.90;;;999.90;;
47866;SDS011;33628;50.806;11.586;2024-03-22T06:17:33;1999.90;;;999.90;;
47866;SDS011;33628;50.806;11.586;2024-03-22T06:20:00;1999.90;;;999.90;;
47866;SDS011;33628;50.806;11.586;2024-03-22T06:22:29;1999.90;;;999.90;;
47866;SDS011;33628;50.806;11.586;2024-03-22T06:24:55;1999.90;;;999.90;;
47866;SDS011;33628;50.806;11.586;2024-03-22T06:27:22;1999.90;;;999.90;;
47866;SDS011;33628;50.806;11.586;2024-03-22T06:29:48;1999.90;;;999.90;;
47866;SDS011;33628;50.806;11.586;2024-03-22T06:32:15;1999.90;;;999.90;;
47866;SDS011;33628;50.806;11.586;2024-03-22T06:34:42;1999.90;;;999.90;;
47866;SDS011;33628;50.806;11.586;2024-03-22T06:37:08;1999.90;;;999.90;;
47866;SDS011;33628;50.806;11.586;2024-03-22T06:39:36;1999.90;;;999.90;;
47866;SDS011;33628;50.806;11.586;2024-03-22T06:42:03;1999.90;;;999.90;;
47866;SDS011;33628;50.806;11.586;2024-03-22T06:44:30;1999.90;;;999.90;;
47866;SDS011;33628;50.806;11.586;2024-03-22T06:46:57;1999.90;;;999.90;;
47866;SDS011;33628;50.806;11.586;2024-03-22T06:49:24;1999.90;;;999.90;;
47866;SDS011;33628;50.806;11.586;2024-03-22T06:51:51;1999.90;;;999.90;;
47866;SDS011;33628;50.806;11.586;2024-03-22T06:54:17;1999.90;;;999.90;;
47866;SDS011;33628;50.806;11.586;2024-03-22T06:56:45;1999.90;;;999.90;;
47866;SDS011;33628;50.806;11.586;2024-03-22T06:59:12;1999.90;;;999.90;;
47866;SDS011;33628;50.806;11.586;2024-03-22T07:01:39;1999.90;;;999.90;;
47866;SDS011;33628;50.806;11.586;2024-03-22T07:04:06;1999.90;;;999.90;;
47866;SDS011;33628;50.806;11.586;2024-03-22T07:06:32;1999.90;;;999.90;;
47866;SDS011;33628;50.806;11.586;2024-03-22T07:08:59;1999.90;;;999.90;;
47866;SDS011;33628;50.806;11.586;2024-03-22T07:11:26;1999.90;;;999.90;;
47866;SDS011;33628;50.806;11.586;2024-03-22T07:13:53;1999.90;;;999.90;;
47866;SDS011;33628;50.806;11.586;2024-03-22T07:16:20;1999.90;;;999.90;;
47866;SDS011;33628;50.806;11.586;2024-03-22T07:18:47;1999.90;;;999.90;;
47866;SDS011;33628;50.806;11.586;2024-03-22T07:21:14;1999.90;;;999.90;;
47866;SDS011;33628;50.806;11.586;2024-03-22T07:23:40;1999.90;;;999.90;;
47866;SDS011;33628;50.806;11.586;2024-03-22T07:26:07;1999.90;;;999.90;;
47866;SDS011;33628;50.806;11.586;2024-03-22T07:28:34;1999.90;;;999.90;;
47866;SDS011;33628;50.806;11.586;2024-03-22T07:31:02;1999.90;;;999.90;;
47866;SDS011;33628;50.806;11.586;2024-03-22T07:33:31;1999.90;;;999.90;;
47866;SDS011;33628;50.806;11.586;2024-03-22T07:36:01;1999.90;;;999.90;;
47866;SDS011;33628;50.806;11.586;2024-03-22T07:38:28;1999.90;;;999.90;;
47866;SDS011;33628;50.806;11.586;2024-03-22T07:40:54;1999.90;;;999.90;;
47866;SDS011;33628;50.806;11.586;2024-03-22T07:43:21;1999.90;;;999.90;;
47866;SDS011;33628;50.806;11.586;2024-03-22T07:45:47;1999.90;;;999.90;;
47866;SDS011;33628;50.806;11.586;2024-03-22T07:48:18;1999.90;;;999.90;;
47866;SDS011;33628;50.806;11.586;2024-03-22T07:50:45;1999.90;;;999.90;;
47866;SDS011;33628;50.806;11.586;2024-03-22T07:53:12;1999.90;;;999.90;;
47866;SDS011;33628;50.806;11.586;2024-03-22T07:55:39;1999.90;;;999.90;;
47866;SDS011;33628;50.806;11.586;2024-03-22T07:58:06;1999.90;;;999.90;;
47866;SDS011;33628;50.806;11.586;2024-03-22T08:00:32;1999.90;;;999.90;;
47866;SDS011;33628;50.806;11.586;2024-03-22T08:02:59;1999.90;;;999.90;;
47866;SDS011;33628;50.806;11.586;2024-03-22T08:05:27;1999.90;;;999.90;;
47866;SDS011;33628;50.806;11.586;2024-03-22T08:07:54;1999.90;;;999.90;;
47866;SDS011;33628;50.806;11.586;2024-03-22T08:10:20;1999.90;;;999.90;;
47866;SDS011;33628;50.806;11.586;2024-03-22T08:12:47;1999.90;;;999.90;;
47866;SDS011;33628;50.806;11.586;2024-03-22T08:15:14;1999.90;;;999.90;;
47866;SDS011;33628;50.806;11.586;2024-03-22T08:17:40;1999.90;;;999.90;;
47866;SDS011;33628;50.806;11.586;2024-03-22T08:20:07;1999.90;;;999.90;;
47866;SDS011;33628;50.806;11.586;2024-03-22T08:22:36;1999.90;;;999.90;;
47866;SDS011;33628;50.806;11.586;2024-03-22T08:25:03;1999.90;;;999.90;;
47866;SDS011;33628;50.806;11.586;2024-03-22T08:27:33;1999.90;;;999.90;;
47866;SDS011;33628;50.806;11.586;2024-03-22T08:30:00;1999.90;;;999.90;;
47866;SDS011;33628;50.806;11.586;2024-03-22T08:32:26;1999.90;;;999.90;;
47866;SDS011;33628;50.806;11.586;2024-03-22T08:34:53;1999.90;;;999.90;;
47866;SDS011;33628;50.806;11.586;2024-03-22T08:37:20;1999.90;;;999.90;;
47866;SDS011;33628;50.806;11.586;2024-03-22T08:39:48;1999.90;;;999.90;;
47866;SDS011;33628;50.806;11.586;2024-03-22T08:42:15;1999.90;;;999.90;;
47866;SDS011;33628;50.806;11.586;2024-03-22T08:44:42;1999.90;;;999.90;;
47866;SDS011;33628;50.806;11.586;2024-03-22T08:47:09;1999.90;;;999.90;;
47866;SDS011;33628;50.806;11.586;2024-03-22T08:49:36;1999.90;;;999.90;;
47866;SDS011;33628;50.806;11.586;2024-03-22T08:52:02;1999.90;;;999.90;;
47866;SDS011;33628;50.806;11.586;2024-03-22T08:54:29;1999.90;;;999.90;;
47866;SDS011;33628;50.806;11.586;2024-03-22T08:56:57;1999.90;;;999.90;;
47866;SDS011;33628;50.806;11.586;2024-03-22T08:59:23;1999.90;;;999.90;;
47866;SDS011;33628;50.806;11.586;2024-03-22T09:01:50;1999.90;;;999.90;;
47866;SDS011;33628;50.806;11.586;2024-03-22T09:04:17;1999.90;;;999.90;;
47866;SDS011;33628;50.806;11.586;2024-03-22T09:06:44;1999.90;;;999.90;;
47866;SDS011;33628;50.806;11.586;2024-03-22T09:09:10;1999.90;;;999.90;;
47866;SDS011;33628;50.806;11.586;2024-03-22T09:11:37;1999.90;;;999.90;;
47866;SDS011;33628;50.806;11.586;2024-03-22T09:14:05;1999.90;;;999.90;;
47866;SDS011;33628;50.806;11.586;2024-03-22T09:16:32;1999.90;;;999.90;;
47866;SDS011;33628;50.806;11.586;2024-03-22T09:18:59;1984.77;;;999.90;;
47866;SDS011;33628;50.806;11.586;2024-03-22T09:21:25;1987.87;;;999.90;;
47866;SDS011;33628;50.806;11.586;2024-03-22T09:23:52;1981.10;;;999.90;;
47866;SDS011;33628;50.806;11.586;2024-03-22T09:26:18;1955.27;;;999.90;;
47866;SDS011;33628;50.806;11.586;2024-03-22T09:28:46;1954.37;;;999.90;;
47866;SDS011;33628;50.806;11.586;2024-03-22T09:31:14;1950.70;;;999.90;;
47866;SDS011;33628;50.806;11.586;2024-03-22T09:33:40;1992.27;;;999.90;;
47866;SDS011;33628;50.806;11.586;2024-03-22T09:36:08;1950.33;;;999.90;;
47866;SDS011;33628;50.806;11.586;2024-03-22T09:54:48;1810.13;;;999.90;;
47866;SDS011;33628;50.806;11.586;2024-03-22T09:57:18;1803.30;;;999.90;;
47866;SDS011;33628;50.806;11.586;2024-03-22T09:59:44;1784.10;;;999.90;;
47866;SDS011;33628;50.806;11.586;2024-03-22T10:02:12;1774.23;;;999.90;;
47866;SDS011;33628;50.806;11.586;2024-03-22T10:04:39;1785.03;;;999.90;;
47866;SDS011;33628;50.806;11.586;2024-03-22T10:07:06;1794.28;;;999.90;;
47866;SDS011;33628;50.806;11.586;2024-03-22T10:09:36;1774.47;;;999.90;;
47866;SDS011;33628;50.806;11.586;2024-03-22T10:12:04;1782.60;;;999.90;;
47866;SDS011;33628;50.806;11.586;2024-03-22T10:14:31;1770.80;;;999.90;;
47866;SDS011;33628;50.806;11.586;2024-03-22T10:16:59;1790.50;;;999.90;;
47866;SDS011;33628;50.806;11.586;2024-03-22T10:19:26;1772.45;;;999.90;;
47866;SDS011;33628;50.806;11.586;2024-03-22T10:21:59;1788.63;;;999.90;;
47866;SDS011;33628;50.806;11.586;2024-03-22T10:24:26;1805.68;;;999.90;;
47866;SDS011;33628;50.806;11.586;2024-03-22T10:26:52;1884.93;;;999.90;;
47866;SDS011;33628;50.806;11.586;2024-03-22T10:29:20;1960.33;;;999.90;;
47866;SDS011;33628;50.806;11.586;2024-03-22T10:31:48;1749.13;;;999.90;;
47866;SDS011;33628;50.806;11.586;2024-03-22T10:34:15;1858.93;;;999.90;;
47866;SDS011;33628;50.806;11.586;2024-03-22T10:36:45;1999.90;;;999.90;;
47866;SDS011;33628;50.806;11.586;2024-03-22T10:39:12;1999.90;;;999.90;;
47866;SDS011;33628;50.806;11.586;2024-03-22T10:41:41;1999.90;;;999.90;;
47866;SDS011;33628;50.806;11.586;2024-03-22T10:44:10;1999.90;;;999.90;;
47866;SDS011;33628;50.806;11.586;2024-03-22T10:46:38;1999.90;;;999.90;;
47866;SDS011;33628;50.806;11.586;2024-03-22T10:49:11;1999.90;;;999.90;;
47866;SDS011;33628;50.806;11.586;2024-03-22T10:51:41;1999.90;;;999.90;;
47866;SDS011;33628;50.806;11.586;2024-03-22T10:54:09;1999.90;;;999.90;;
47866;SDS011;33628;50.806;11.586;2024-03-22T10:56:36;1999.90;;;999.90;;
47866;SDS011;33628;50.806;11.586;2024-03-22T10:59:03;1999.90;;;999.90;;
47866;SDS011;33628;50.806;11.586;2024-03-22T11:01:31;1999.90;;;999.90;;
47866;SDS011;33628;50.806;11.586;2024-03-22T11:04:04;1931.03;;;999.90;;
47866;SDS011;33628;50.806;11.586;2024-03-22T11:06:32;1999.90;;;999.90;;
47866;SDS011;33628;50.806;11.586;2024-03-22T11:08:59;1999.90;;;999.90;;
47866;SDS011;33628;50.806;11.586;2024-03-22T11:11:36;1999.90;;;999.90;;
47866;SDS011;33628;50.806;11.586;2024-03-22T11:14:03;1999.90;;;999.90;;
47866;SDS011;33628;50.806;11.586;2024-03-22T11:16:29;1999.90;;;999.90;;
47866;SDS011;33628;50.806;11.586;2024-03-22T11:18:56;1999.90;;;999.90;;
47866;SDS011;33628;50.806;11.586;2024-03-22T11:21:24;1999.90;;;999.90;;
47866;SDS011;33628;50.806;11.586;2024-03-22T11:23:51;1999.90;;;999.90;;
47866;SDS011;33628;50.806;11.586;2024-03-22T11:26:17;1999.90;;;999.90;;
47866;SDS011;33628;50.806;11.586;2024-03-22T11:28:44;1999.90;;;999.90;;
47866;SDS011;33628;50.806;11.586;2024-03-22T11:31:11;1999.90;;;999.90;;
47866;SDS011;33628;50.806;11.586;2024-03-22T11:33:38;1999.90;;;999.90;;
47866;SDS011;33628;50.806;11.586;2024-03-22T11:36:05;1999.90;;;999.90;;
47866;SDS011;33628;50.806;11.586;2024-03-22T11:38:33;1999.90;;;999.90;;
47866;SDS011;33628;50.806;11.586;2024-03-22T11:41:00;1999.90;;;999.90;;
47866;SDS011;33628;50.806;11.586;2024-03-22T11:43:28;1999.90;;;999.90;;
47866;SDS011;33628;50.806;11.586;2024-03-22T11:45:55;1999.90;;;999.90;;
47866;SDS011;33628;50.806;11.586;2024-03-22T11:48:22;1999.90;;;999.90;;
47866;SDS011;33628;50.806;11.586;2024-03-22T11:50:49;1999.90;;;999.90;;
47866;SDS011;33628;50.806;11.586;2024-03-22T11:53:15;1999.90;;;999.90;;
47866;SDS011;33628;50.806;11.586;2024-03-22T11:55:44;1999.90;;;999.90;;
47866;SDS011;33628;50.806;11.586;2024-03-22T11:58:11;1999.90;;;999.90;;
47866;SDS011;33628;50.806;11.586;2024-03-22T12:00:38;1999.90;;;999.90;;
47866;SDS011;33628;50.806;11.586;2024-03-22T12:03:05;1999.90;;;999.90;;
47866;SDS011;33628;50.806;11.586;2024-03-22T12:05:32;1999.90;;;999.90;;
47866;SDS011;33628;50.806;11.586;2024-03-22T12:07:58;1999.90;;;999.90;;
47866;SDS011;33628;50.806;11.586;2024-03-22T12:10:25;1999.90;;;999.90;;
47866;SDS011;33628;50.806;11.586;2024-03-22T12:12:53;1999.90;;;999.90;;
47866;SDS011;33628;50.806;11.586;2024-03-22T12:15:20;1999.90;;;999.90;;
47866;SDS011;33628;50.806;11.586;2024-03-22T12:17:47;1999.90;;;999.90;;
47866;SDS011;33628;50.806;11.586;2024-03-22T12:20:16;1999.90;;;999.90;;
47866;SDS011;33628;50.806;11.586;2024-03-22T12:22:43;1999.90;;;999.90;;
47866;SDS011;33628;50.806;11.586;2024-03-22T12:25:09;1999.90;;;999.90;;
47866;SDS011;33628;50.806;11.586;2024-03-22T12:27:37;1999.90;;;999.90;;
47866;SDS011;33628;50.806;11.586;2024-03-22T12:30:06;1999.90;;;999.90;;
47866;SDS011;33628;50.806;11.586;2024-03-22T12:32:37;1999.90;;;999.90;;
47866;SDS011;33628;50.806;11.586;2024-03-22T12:35:03;1999.90;;;999.90;;
47866;SDS011;33628;50.806;11.586;2024-03-22T12:37:31;1999.90;;;999.90;;
47866;SDS011;33628;50.806;11.586;2024-03-22T12:39:57;1999.90;;;999.90;;
47866;SDS011;33628;50.806;11.586;2024-03-22T12:42:24;1999.90;;;999.90;;
47866;SDS011;33628;50.806;11.586;2024-03-22T12:44:51;1999.90;;;999.90;;
47866;SDS011;33628;50.806;11.586;2024-03-22T12:47:19;1999.90;;;999.90;;
47866;SDS011;33628;50.806;11.586;2024-03-22T12:49:45;1999.90;;;999.90;;
47866;SDS011;33628;50.806;11.586;2024-03-22T12:52:12;1999.90;;;999.90;;
47866;SDS011;33628;50.806;11.586;2024-03-22T12:54:38;1999.90;;;999.90;;
47866;SDS011;33628;50.806;11.586;2024-03-22T12:57:05;1999.90;;;999.90;;
47866;SDS011;33628;50.806;11.586;2024-03-22T12:59:32;1999.90;;;999.90;;
47866;SDS011;33628;50.806;11.586;2024-03-22T13:01:59;1999.90;;;999.90;;
47866;SDS011;33628;50.806;11.586;2024-03-22T13:04:28;1999.90;;;999.90;;
47866;SDS011;33628;50.806;11.586;2024-03-22T13:06:55;1999.90;;;999.90;;
47866;SDS011;33628;50.806;11.586;2024-03-22T13:09:21;1999.90;;;999.90;;
47866;SDS011;33628;50.806;11.586;2024-03-22T13:11:48;1999.90;;;999.90;;
47866;SDS011;33628;50.806;11.586;2024-03-22T13:14:15;1999.90;;;999.90;;
47866;SDS011;33628;50.806;11.586;2024-03-22T13:16:41;1999.90;;;999.90;;
47866;SDS011;33628;50.806;11.586;2024-03-22T13:19:08;1999.90;;;999.90;;
47866;SDS011;33628;50.806;11.586;2024-03-22T13:21:39;1999.90;;;999.90;;
47866;SDS011;33628;50.806;11.586;2024-03-22T13:24:06;1999.90;;;999.90;;
47866;SDS011;33628;50.806;11.586;2024-03-22T13:26:33;1999.90;;;999.90;;
47866;SDS011;33628;50.806;11.586;2024-03-22T13:28:59;1999.90;;;999.90;;
47866;SDS011;33628;50.806;11.586;2024-03-22T13:31:30;1999.90;;;999.90;;
47866;SDS011;33628;50.806;11.586;2024-03-22T13:33:57;1999.90;;;999.90;;
47866;SDS011;33628;50.806;11.586;2024-03-22T13:36:23;1999.90;;;999.90;;
47866;SDS011;33628;50.806;11.586;2024-03-22T13:38:52;1999.90;;;999.90;;
47866;SDS011;33628;50.806;11.586;2024-03-22T13:41:19;1999.90;;;999.90;;
47866;SDS011;33628;50.806;11.586;2024-03-22T13:43:46;1999.90;;;999.90;;
47866;SDS011;33628;50.806;11.586;2024-03-22T13:46:14;1999.90;;;999.90;;
47866;SDS011;33628;50.806;11.586;2024-03-22T13:48:43;1999.90;;;999.90;;
47866;SDS011;33628;50.806;11.586;2024-03-22T13:51:10;1999.90;;;999.90;;
47866;SDS011;33628;50.806;11.586;2024-03-22T13:53:36;1999.90;;;999.90;;
47866;SDS011;33628;50.806;11.586;2024-03-22T13:56:05;1999.90;;;999.90;;
47866;SDS011;33628;50.806;11.586;2024-03-22T13:58:32;1999.90;;;999.90;;
47866;SDS011;33628;50.806;11.586;2024-03-22T14:00:59;1999.90;;;999.90;;
47866;SDS011;33628;50.806;11.586;2024-03-22T14:03:26;1999.90;;;999.90;;